createdAt,value
2018-11-23T00:01:12.503Z,45.60
2018-11-23T00:03:49.860Z,45.33
2018-11-23T00:06:29.127Z,43.60
2018-11-23T00:09:02.760Z,45.85
2018-11-23T00:11:37.082Z,43.28
2018-11-23T00:14:10.774Z,45.55
2018-11-23T00:16:42.814Z,43.48
2018-11-23T00:19:16.445Z,44.85
2018-11-23T00:21:48.891Z,42.43
2018-11-23T00:24:25.764Z,42.75
2018-11-23T00:26:57.832Z,42.98
2018-11-23T00:29:31.431Z,41.15
2018-11-23T00:32:02.318Z,43.23
2018-11-23T00:34:35.848Z,44.18
2018-11-23T00:37:10.554Z,43.58
2018-11-23T00:39:42.817Z,41.90
2018-11-23T00:42:14.238Z,42.50
2018-11-23T00:44:46.235Z,46.40
2018-11-23T00:47:17.743Z,43.52
2018-11-23T00:49:52.594Z,41.98
2018-11-23T00:52:24.170Z,40.60
2018-11-23T00:54:58.324Z,42.67
2018-11-23T00:57:32.704Z,43.68
2018-11-23T01:00:05.708Z,45.23
2018-11-23T01:02:36.844Z,40.10
2018-11-23T01:05:11.125Z,41.50
2018-11-23T01:07:43.546Z,41.15
2018-11-23T01:10:18.001Z,38.33
2018-11-23T01:12:51.652Z,38.58
2018-11-23T01:15:25.545Z,38.65
2018-11-23T01:17:58.770Z,41.45
2018-11-23T01:20:30.239Z,43.13
2018-11-23T01:23:03.655Z,42.65
2018-11-23T01:25:35.368Z,38.88
2018-11-23T01:28:08.958Z,43.63
2018-11-23T01:30:42.448Z,42.13
2018-11-23T01:33:15.849Z,39.33
2018-11-23T01:35:47.917Z,43.02
2018-11-23T01:38:19.916Z,41.50
2018-11-23T01:40:52.994Z,39.20
2018-11-23T01:43:24.626Z,40.98
2018-11-23T01:45:59.502Z,38.35
2018-11-23T01:48:32.526Z,41.63
2018-11-23T01:51:04.906Z,39.98
2018-11-23T01:53:36.937Z,37.73
2018-11-23T01:56:10.555Z,39.92
2018-11-23T01:58:43.952Z,39.65
2018-11-23T02:01:15.381Z,39.13
2018-11-23T02:03:48.465Z,37.93
2018-11-23T02:06:20.895Z,39.15
2018-11-23T02:08:52.309Z,41.60
2018-11-23T02:11:26.713Z,40.10
2018-11-23T02:14:00.421Z,39.42
2018-11-23T02:16:33.740Z,40.55
2018-11-23T02:19:06.120Z,40.92
2018-11-23T02:21:36.720Z,37.55
2018-11-23T02:24:11.876Z,41.42
2018-11-23T02:26:44.556Z,39.60
2018-11-23T02:29:18.961Z,38.25
2018-11-23T02:31:51.762Z,40.83
2018-11-23T02:34:25.067Z,42.65
2018-11-23T02:36:58.633Z,39.25
2018-11-23T02:39:33.422Z,41.73
2018-11-23T02:42:06.417Z,40.20
2018-11-23T02:44:40.382Z,41.18
2018-11-23T02:47:17.964Z,37.75
2018-11-23T02:49:53.969Z,40.58
2018-11-23T02:52:26.080Z,39.83
2018-11-23T02:54:58.884Z,40.45
2018-11-23T02:57:31.319Z,38.30
2018-11-23T03:00:02.508Z,39.18
2018-11-23T03:02:36.801Z,37.23
2018-11-23T03:05:08.943Z,36.95
2018-11-23T03:07:40.145Z,39.13
2018-11-23T03:10:13.305Z,36.33
2018-11-23T03:12:45.362Z,40.17
2018-11-23T03:15:18.047Z,40.58
2018-11-23T03:17:49.967Z,38.50
2018-11-23T03:20:22.285Z,39.45
2018-11-23T03:22:55.798Z,41.58
2018-11-23T03:25:29.789Z,40.52
2018-11-23T03:28:02.167Z,40.33
2018-11-23T03:30:36.271Z,41.05
2018-11-23T03:33:09.900Z,43.52
2018-11-23T03:35:41.497Z,39.23
2018-11-23T03:38:14.424Z,39.40
2018-11-23T03:40:48.145Z,39.45
2018-11-23T03:43:20.743Z,37.63
2018-11-23T03:45:52.526Z,40.52
2018-11-23T03:48:27.304Z,39.27
2018-11-23T03:51:00.442Z,39.38
2018-11-23T03:53:39.363Z,37.80
2018-11-23T03:56:12.274Z,38.15
2018-11-23T03:58:46.214Z,40.98
2018-11-23T04:01:18.231Z,39.38
2018-11-23T04:03:50.613Z,42.23
2018-11-23T04:06:23.170Z,42.53
2018-11-23T04:08:54.892Z,39.40
2018-11-23T04:11:27.323Z,41.48
2018-11-23T04:14:00.394Z,40.10
2018-11-23T04:16:33.072Z,38.75
2018-11-23T04:28:16.779Z,41.83
2018-11-23T04:30:49.502Z,38.78
2018-11-23T04:33:21.923Z,38.85
2018-11-23T04:35:54.455Z,39.98
2018-11-23T04:38:29.012Z,41.10
2018-11-23T04:41:01.490Z,40.03
2018-11-23T04:43:36.606Z,39.18
2018-11-23T04:46:09.499Z,39.78
2018-11-23T04:48:41.460Z,38.40
2018-11-23T04:51:13.405Z,43.75
2018-11-23T04:53:45.945Z,40.35
2018-11-23T04:56:18.408Z,39.70
2018-11-23T04:58:52.027Z,40.73
2018-11-23T05:01:25.621Z,42.15
2018-11-23T05:03:57.354Z,39.03
2018-11-23T05:06:32.276Z,39.48
2018-11-23T05:09:05.859Z,39.53
2018-11-23T05:11:38.440Z,39.05
2018-11-23T05:14:11.178Z,39.58
2018-11-23T05:16:43.899Z,37.53
2018-11-23T05:19:16.727Z,39.83
2018-11-23T05:21:49.557Z,39.38
2018-11-23T05:24:22.832Z,39.05
2018-11-23T05:26:55.910Z,35.48
2018-11-23T05:29:30.242Z,37.67
2018-11-23T05:32:02.828Z,41.42
2018-11-23T05:34:33.881Z,40.75
2018-11-23T05:37:10.170Z,41.73
2018-11-23T05:39:44.353Z,44.40
2018-11-23T05:42:17.075Z,45.55
2018-11-23T05:44:48.548Z,46.77
2018-11-23T05:47:25.899Z,44.10
2018-11-23T05:50:01.872Z,39.65
2018-11-23T05:52:34.418Z,39.50
2018-11-23T05:55:07.260Z,42.78
2018-11-23T05:57:42.087Z,42.43
2018-11-23T06:00:15.993Z,42.00
2018-11-23T06:02:47.430Z,43.40
2018-11-23T06:05:21.521Z,49.08
2018-11-23T06:07:54.269Z,38.50
2018-11-23T06:10:25.688Z,47.33
2018-11-23T06:12:58.448Z,44.13
2018-11-23T06:15:30.861Z,45.90
2018-11-23T06:18:03.165Z,41.08
2018-11-23T06:20:37.766Z,41.48
2018-11-23T06:23:09.166Z,46.40
2018-11-23T06:25:43.164Z,47.23
2018-11-23T06:28:14.446Z,43.48
2018-11-23T06:30:46.599Z,43.60
2018-11-23T06:33:22.638Z,42.10
2018-11-23T06:35:55.362Z,43.00
2018-11-23T06:38:27.253Z,45.30
2018-11-23T06:40:59.372Z,39.73
2018-11-23T06:43:30.924Z,42.45
2018-11-23T06:46:04.441Z,43.33
2018-11-23T06:48:37.993Z,48.40
2018-11-23T06:51:10.113Z,45.67
2018-11-23T06:53:42.587Z,42.93
2018-11-23T06:56:14.355Z,49.63
2018-11-23T06:58:45.581Z,44.35
2018-11-23T07:01:19.796Z,44.30
2018-11-23T07:03:54.268Z,49.27
2018-11-23T07:06:27.448Z,43.13
2018-11-23T07:09:00.080Z,44.80
2018-11-23T07:11:33.216Z,49.00
2018-11-23T07:14:04.980Z,56.60
2018-11-23T07:16:36.609Z,68.28
2018-11-23T07:19:07.383Z,83.78
2018-11-23T07:21:39.720Z,94.45
2018-11-23T07:24:12.474Z,93.95
2018-11-23T07:26:43.168Z,112.20
2018-11-23T07:29:15.482Z,115.05
2018-11-23T07:31:47.833Z,125.27
2018-11-23T07:34:22.880Z,167.85
2018-11-23T07:36:53.214Z,173.43
2018-11-23T07:39:30.073Z,170.32
2018-11-23T07:42:09.538Z,175.57
2018-11-23T07:44:45.056Z,166.60
2018-11-23T07:47:19.306Z,160.43
2018-11-23T07:49:49.799Z,157.50
2018-11-23T07:52:21.893Z,158.05
2018-11-23T07:54:54.427Z,153.42
2018-11-23T07:57:25.638Z,145.00
2018-11-23T08:00:02.622Z,145.12
2018-11-23T08:02:36.343Z,141.77
2018-11-23T08:05:08.150Z,145.75
2018-11-23T08:07:40.649Z,150.42
2018-11-23T08:10:12.158Z,157.12
2018-11-23T08:12:49.307Z,179.25
2018-11-23T08:15:22.795Z,160.97
2018-11-23T08:17:53.785Z,181.82
2018-11-23T08:20:26.467Z,182.72
2018-11-23T08:22:58.496Z,180.52
2018-11-23T08:25:31.847Z,208.38
2018-11-23T08:28:04.693Z,191.82
2018-11-23T08:30:36.881Z,198.15
2018-11-23T08:33:10.001Z,199.82
2018-11-23T08:35:42.897Z,210.38
2018-11-23T08:38:14.856Z,194.35
2018-11-23T08:40:47.736Z,196.50
2018-11-23T08:43:19.282Z,205.85
2018-11-23T08:45:53.826Z,189.40
2018-11-23T08:48:24.807Z,199.42
2018-11-23T08:50:57.577Z,197.82
2018-11-23T08:53:31.890Z,188.65
2018-11-23T08:56:06.143Z,192.87
2018-11-23T08:58:39.297Z,190.35
2018-11-23T09:01:12.973Z,180.87
2018-11-23T09:03:47.407Z,196.43
2018-11-23T09:06:20.780Z,199.80
2018-11-23T09:08:55.574Z,197.90
2018-11-23T09:11:28.620Z,189.90
2018-11-23T09:14:02.004Z,182.15
2018-11-23T09:16:36.442Z,189.15
2018-11-23T09:19:07.458Z,190.85
2018-11-23T09:21:41.495Z,177.40
2018-11-23T09:24:12.086Z,175.87
2018-11-23T09:26:44.648Z,188.12
2018-11-23T09:29:16.842Z,164.75
2018-11-23T09:31:49.532Z,180.93
2018-11-23T09:34:21.876Z,175.65
2018-11-23T09:36:54.301Z,168.60
2018-11-23T09:39:29.145Z,164.10
2018-11-23T09:42:02.551Z,173.35
2018-11-23T09:44:37.462Z,166.45
2018-11-23T09:47:10.155Z,173.90
2018-11-23T09:49:41.300Z,162.85
2018-11-23T09:52:13.072Z,154.18
2018-11-23T09:54:48.359Z,158.68
2018-11-23T09:57:21.404Z,159.50
2018-11-23T09:59:53.794Z,162.53
2018-11-23T10:02:25.963Z,152.85
2018-11-23T10:04:59.039Z,144.13
2018-11-23T10:07:30.135Z,154.60
2018-11-23T10:10:01.820Z,146.82
2018-11-23T10:12:33.885Z,145.75
2018-11-23T10:15:07.600Z,153.62
2018-11-23T10:17:39.318Z,144.60
2018-11-23T10:20:14.324Z,145.30
2018-11-23T10:22:47.354Z,140.35
2018-11-23T10:25:21.832Z,145.62
2018-11-23T10:27:55.932Z,138.97
2018-11-23T10:30:29.516Z,140.95
2018-11-23T10:33:03.214Z,137.10
2018-11-23T10:35:35.994Z,139.40
2018-11-23T10:38:08.100Z,140.47
2018-11-23T10:40:43.317Z,137.07
2018-11-23T10:43:18.073Z,126.38
2018-11-23T10:45:51.030Z,148.15
2018-11-23T10:48:25.641Z,136.60
2018-11-23T10:50:59.816Z,136.37
2018-11-23T10:53:31.227Z,139.25
2018-11-23T10:56:04.498Z,135.28
2018-11-23T10:58:36.859Z,129.18
2018-11-23T11:01:15.725Z,130.10
2018-11-23T11:03:59.696Z,128.53
2018-11-23T11:06:41.011Z,125.90
2018-11-23T11:09:11.975Z,135.60
2018-11-23T11:11:45.464Z,125.25
2018-11-23T11:14:17.454Z,120.10
2018-11-23T11:16:49.464Z,125.45
2018-11-23T11:19:20.975Z,127.60
2018-11-23T11:21:54.749Z,122.22
2018-11-23T11:24:25.444Z,132.27
2018-11-23T11:27:00.650Z,115.70
2018-11-23T11:29:31.680Z,126.42
2018-11-23T11:32:04.615Z,129.05
2018-11-23T11:34:38.337Z,128.55
2018-11-23T11:37:10.985Z,120.02
2018-11-23T11:39:44.732Z,114.03
2018-11-23T11:42:18.413Z,125.90
2018-11-23T11:44:51.593Z,120.10
2018-11-23T11:47:29.260Z,121.72
2018-11-23T11:50:01.408Z,110.55
2018-11-23T11:52:38.326Z,120.33
2018-11-23T11:55:12.323Z,117.65
2018-11-23T11:57:44.160Z,111.85
2018-11-23T12:00:18.933Z,119.02
2018-11-23T12:02:54.053Z,116.05
2018-11-23T12:05:29.188Z,113.70
2018-11-23T12:08:05.549Z,111.42
2018-11-23T12:10:40.096Z,114.90
2018-11-23T12:13:11.804Z,124.05
2018-11-23T12:15:43.055Z,121.17
2018-11-23T12:18:14.426Z,125.38
2018-11-23T12:20:48.343Z,107.03
2018-11-23T12:23:19.595Z,115.70
2018-11-23T12:25:52.409Z,121.90
2018-11-23T12:28:25.968Z,128.62
2018-11-23T12:30:57.523Z,111.08
2018-11-23T12:33:31.127Z,125.85
2018-11-23T12:36:06.450Z,138.45
2018-11-23T12:38:40.182Z,131.25
2018-11-23T12:41:09.157Z,122.70
2018-11-23T12:43:42.325Z,100.27
2018-11-23T12:46:15.747Z,97.70
2018-11-23T12:48:51.060Z,98.03
2018-11-23T12:51:23.808Z,118.55
2018-11-23T12:53:58.362Z,114.10
2018-11-23T12:56:31.325Z,181.45
2018-11-23T12:59:05.289Z,178.25
2018-11-23T13:01:37.559Z,240.62
2018-11-23T13:04:09.374Z,258.10
2018-11-23T13:06:43.541Z,244.35
2018-11-23T13:09:17.072Z,265.65
2018-11-23T13:11:49.347Z,288.73
2018-11-23T13:14:21.514Z,266.42
2018-11-23T13:16:55.419Z,276.23
2018-11-23T13:19:26.589Z,283.10
2018-11-23T13:21:58.872Z,302.62
2018-11-23T13:24:32.018Z,302.05
2018-11-23T13:27:05.771Z,291.57
2018-11-23T13:29:40.120Z,312.65
2018-11-23T13:32:12.700Z,309.12
2018-11-23T13:34:44.954Z,310.63
2018-11-23T13:37:17.522Z,311.02
2018-11-23T13:39:54.192Z,295.73
2018-11-23T13:42:26.468Z,301.77
2018-11-23T13:45:00.146Z,300.73
2018-11-23T13:47:32.425Z,278.65
2018-11-23T13:50:05.914Z,302.55
2018-11-23T13:52:37.988Z,276.55
2018-11-23T13:55:09.605Z,287.75
2018-11-23T13:57:43.840Z,294.65
2018-11-23T14:00:18.859Z,270.75
2018-11-23T14:02:51.359Z,264.15
2018-11-23T14:05:25.590Z,269.10
2018-11-23T14:08:02.039Z,279.63
2018-11-23T14:10:34.951Z,264.60
2018-11-23T14:13:11.616Z,258.98
2018-11-23T14:15:44.058Z,261.90
2018-11-23T14:18:15.610Z,248.68
2018-11-23T14:20:49.851Z,233.80
2018-11-23T14:23:24.541Z,197.07
2018-11-23T14:25:56.604Z,166.15
2018-11-23T14:28:29.624Z,145.12
2018-11-23T14:31:02.315Z,142.47
2018-11-23T14:33:37.287Z,150.95
2018-11-23T14:36:10.058Z,142.28
2018-11-23T14:38:44.165Z,147.85
2018-11-23T14:41:16.854Z,146.30
2018-11-23T14:43:49.370Z,138.12
2018-11-23T14:46:22.782Z,136.62
2018-11-23T14:48:55.345Z,141.05
2018-11-23T14:51:27.176Z,137.28
2018-11-23T14:53:58.948Z,139.45
2018-11-23T14:56:29.843Z,132.78
2018-11-23T14:59:04.087Z,136.30
2018-11-23T15:01:38.489Z,128.50
2018-11-23T15:04:10.186Z,123.13
2018-11-23T15:06:42.797Z,125.35
2018-11-23T15:09:14.681Z,125.42
2018-11-23T15:11:46.631Z,118.62
2018-11-23T15:14:19.360Z,125.40
2018-11-23T15:16:52.223Z,121.55
2018-11-23T15:19:27.856Z,119.70
2018-11-23T15:22:00.763Z,121.97
2018-11-23T15:24:33.149Z,125.80
2018-11-23T15:27:06.040Z,111.47
2018-11-23T15:29:39.378Z,111.62
2018-11-23T15:32:12.177Z,104.25
2018-11-23T15:34:44.723Z,105.65
2018-11-23T15:37:19.020Z,98.75
2018-11-23T15:39:54.830Z,101.00
2018-11-23T15:42:30.192Z,87.15
2018-11-23T15:45:02.022Z,89.05
2018-11-23T15:47:35.443Z,93.50
2018-11-23T15:50:06.184Z,92.70
2018-11-23T15:52:38.589Z,95.25
2018-11-23T15:55:11.991Z,91.25
2018-11-23T15:57:46.251Z,87.62
2018-11-23T16:00:21.594Z,89.20
2018-11-23T16:02:54.908Z,84.72
2018-11-23T16:05:27.802Z,88.33
2018-11-23T16:08:00.708Z,84.55
2018-11-23T16:10:37.694Z,84.50
2018-11-23T16:13:12.471Z,81.63
2018-11-23T16:15:45.629Z,82.37
2018-11-23T16:18:17.998Z,83.12
2018-11-23T16:20:49.770Z,79.60
2018-11-23T16:23:23.333Z,81.17
2018-11-23T16:25:57.999Z,76.45
2018-11-23T16:28:30.888Z,75.50
2018-11-23T16:31:05.325Z,73.92
2018-11-23T16:33:38.162Z,75.15
2018-11-23T16:36:13.853Z,69.37
2018-11-23T16:38:48.077Z,71.35
2018-11-23T16:41:20.902Z,69.37
2018-11-23T16:43:53.816Z,70.90
2018-11-23T16:46:28.346Z,71.62
2018-11-23T16:49:01.933Z,73.33
2018-11-23T16:51:36.772Z,70.30
2018-11-23T16:54:13.384Z,70.22
2018-11-23T16:56:47.907Z,74.45
2018-11-23T16:59:19.019Z,72.72
2018-11-23T17:01:54.273Z,71.10
2018-11-23T17:04:29.068Z,65.55
2018-11-23T17:07:01.492Z,66.37
2018-11-23T17:09:32.576Z,61.92
2018-11-23T17:12:04.644Z,61.83
2018-11-23T17:14:35.564Z,64.85
2018-11-23T17:17:09.671Z,68.15
2018-11-23T17:19:42.990Z,60.23
2018-11-23T17:22:15.104Z,61.50
2018-11-23T17:24:46.007Z,64.53
2018-11-23T17:27:19.329Z,59.60
2018-11-23T17:29:50.697Z,58.02
2018-11-23T17:32:22.704Z,59.30
2018-11-23T17:34:56.292Z,57.70
2018-11-23T17:37:30.799Z,57.33
2018-11-23T17:40:04.889Z,58.38
2018-11-23T17:42:37.699Z,58.92
2018-11-23T17:45:10.386Z,54.08
2018-11-23T17:47:43.698Z,55.73
2018-11-23T17:50:18.337Z,60.35
2018-11-23T17:52:51.588Z,55.67
2018-11-23T17:55:25.301Z,56.25
2018-11-23T17:57:58.392Z,56.83
2018-11-23T18:00:38.887Z,54.13
2018-11-23T18:03:05.899Z,56.85
2018-11-23T18:05:40.623Z,53.87
2018-11-23T18:08:11.908Z,53.83
2018-11-23T18:10:42.617Z,50.35
2018-11-23T18:13:17.537Z,51.50
2018-11-23T18:15:49.729Z,51.42
2018-11-23T18:18:22.814Z,50.08
2018-11-23T18:20:57.110Z,47.35
2018-11-23T18:23:30.391Z,51.37
2018-11-23T18:26:04.572Z,50.30
2018-11-23T18:28:39.911Z,45.70
2018-11-23T18:31:13.361Z,52.20
2018-11-23T18:33:47.807Z,48.38
2018-11-23T18:36:19.465Z,45.75
2018-11-23T18:38:53.703Z,46.25
2018-11-23T18:41:30.268Z,49.85
2018-11-23T18:44:03.684Z,47.13
2018-11-23T18:46:35.837Z,46.92
2018-11-23T18:49:14.954Z,49.33
2018-11-23T18:51:49.029Z,48.73
2018-11-23T18:54:24.149Z,47.50
2018-11-23T18:56:56.623Z,49.33
2018-11-23T18:59:32.160Z,48.48
2018-11-23T19:02:06.401Z,42.98
2018-11-23T19:04:38.736Z,41.30
2018-11-23T19:07:11.493Z,43.23
2018-11-23T19:09:45.583Z,43.02
2018-11-23T19:12:18.928Z,43.35
2018-11-23T19:15:12.638Z,43.48
2018-11-23T19:17:49.472Z,46.65
2018-11-23T19:20:22.997Z,44.83
2018-11-23T19:22:57.186Z,44.88
2018-11-23T19:25:29.310Z,38.85
2018-11-23T19:28:01.946Z,37.90
2018-11-23T19:30:35.015Z,39.98
2018-11-23T19:33:12.482Z,38.00
2018-11-23T19:35:45.910Z,39.42
2018-11-23T19:38:19.320Z,36.88
2018-11-23T19:40:52.071Z,41.30
2018-11-23T19:43:23.616Z,41.37
2018-11-23T19:45:59.100Z,44.65
2018-11-23T19:48:31.252Z,44.88
2018-11-23T19:51:08.631Z,42.10
2018-11-23T19:53:42.884Z,44.95
2018-11-23T19:56:15.297Z,44.20
2018-11-23T19:58:49.834Z,41.92
2018-11-23T20:01:22.524Z,40.10
2018-11-23T20:03:55.535Z,44.05
2018-11-23T20:06:28.648Z,42.15
2018-11-23T20:09:01.777Z,37.08
2018-11-23T20:11:36.910Z,38.73
2018-11-23T20:14:10.683Z,43.35
2018-11-23T20:16:42.302Z,41.45
2018-11-23T20:19:14.922Z,41.00
2018-11-23T20:21:48.863Z,45.63
2018-11-23T20:24:21.124Z,46.35
2018-11-23T20:26:53.435Z,45.15
2018-11-23T20:29:28.203Z,46.18
2018-11-23T20:32:03.182Z,41.50
2018-11-23T20:34:36.749Z,43.25
2018-11-23T20:37:09.852Z,42.08
2018-11-23T20:39:41.857Z,40.65
2018-11-23T20:42:14.866Z,37.85
2018-11-23T20:44:47.133Z,40.40
2018-11-23T20:47:20.568Z,37.53
2018-11-23T20:49:51.700Z,37.55
2018-11-23T20:52:24.075Z,35.92
2018-11-23T20:54:59.387Z,36.90
2018-11-23T20:57:31.705Z,34.63
2018-11-23T21:00:03.529Z,35.33
2018-11-23T21:02:39.301Z,39.00
2018-11-23T21:05:11.042Z,35.17
2018-11-23T21:07:44.390Z,32.60
2018-11-23T21:10:20.309Z,32.20
2018-11-23T21:12:49.717Z,34.75
2018-11-23T21:15:24.150Z,32.25
2018-11-23T21:17:57.325Z,34.85
2018-11-23T21:20:30.103Z,36.23
2018-11-23T21:23:04.898Z,33.83
2018-11-23T21:25:36.770Z,35.17
2018-11-23T21:28:11.326Z,30.20
2018-11-23T21:30:46.770Z,31.30
2018-11-23T21:33:22.292Z,31.93
2018-11-23T21:35:54.953Z,29.80
2018-11-23T21:38:28.874Z,33.38
2018-11-23T21:41:02.160Z,30.15
2018-11-23T21:43:36.229Z,29.20
2018-11-23T21:46:09.281Z,30.72
2018-11-23T21:48:42.559Z,36.58
2018-11-23T21:51:16.265Z,31.55
2018-11-23T21:53:49.630Z,26.52
2018-11-23T21:56:23.757Z,29.05
2018-11-23T21:58:57.971Z,27.98
2018-11-23T22:01:33.052Z,27.65
2018-11-23T22:04:06.607Z,28.45
2018-11-23T22:06:40.803Z,30.05
2018-11-23T22:09:13.846Z,30.68
2018-11-23T22:11:52.321Z,32.10
2018-11-23T22:14:21.411Z,29.75
2018-11-23T22:16:56.986Z,30.97
2018-11-23T22:19:30.960Z,29.25
2018-11-23T22:22:05.599Z,26.27
2018-11-23T22:24:46.455Z,27.45
2018-11-23T22:27:21.351Z,25.50
2018-11-23T22:29:54.238Z,30.00
2018-11-23T22:32:27.611Z,28.23
2018-11-23T22:35:00.663Z,27.75
2018-11-23T22:37:32.506Z,27.27
2018-11-23T22:40:05.722Z,27.17
2018-11-23T22:42:44.536Z,26.68
2018-11-23T22:45:16.359Z,29.12
2018-11-23T22:47:51.321Z,27.90
2018-11-23T22:50:24.061Z,26.70
2018-11-23T22:52:58.161Z,27.45
2018-11-23T22:55:30.292Z,31.48
2018-11-23T22:58:04.018Z,26.45
2018-11-23T23:00:42.809Z,30.17
2018-11-23T23:03:17.095Z,26.50
2018-11-23T23:05:50.223Z,25.00
2018-11-23T23:08:21.088Z,27.48
2018-11-23T23:10:53.907Z,28.12
2018-11-23T23:13:28.035Z,24.52
2018-11-23T23:16:01.836Z,24.05
2018-11-23T23:18:34.186Z,31.10
2018-11-23T23:21:05.086Z,29.57
2018-11-23T23:23:38.413Z,28.90
2018-11-23T23:26:16.038Z,27.37
2018-11-23T23:28:48.910Z,28.00
2018-11-23T23:31:25.191Z,27.75
2018-11-23T23:33:58.512Z,26.37
2018-11-23T23:36:30.751Z,27.85
2018-11-23T23:39:01.763Z,28.00
2018-11-23T23:41:34.664Z,31.70
2018-11-23T23:44:06.332Z,32.83
2018-11-23T23:46:37.854Z,30.15
2018-11-23T23:49:09.631Z,27.87
2018-11-23T23:51:42.548Z,27.48
2018-11-23T23:54:13.392Z,29.85
2018-11-23T23:56:44.444Z,35.55
2018-11-23T23:59:16.139Z,32.88
